createdAt,value
2018-03-31T00:00:12.342Z,0
2018-03-31T00:01:20.372Z,0
2018-03-31T00:02:28.524Z,0
2018-03-31T00:03:36.552Z,0
2018-03-31T00:04:44.565Z,0
2018-03-31T00:05:52.611Z,0
2018-03-31T00:07:00.769Z,0
2018-03-31T00:08:12.597Z,0
2018-03-31T00:09:16.820Z,0
2018-03-31T00:10:24.935Z,0
2018-03-31T00:11:32.932Z,0
2018-03-31T00:12:40.992Z,0
2018-03-31T00:13:49.137Z,0
2018-03-31T00:14:57.142Z,0
2018-03-31T00:16:05.163Z,0
2018-03-31T00:17:13.281Z,0
2018-03-31T00:18:21.264Z,0
2018-03-31T00:19:29.365Z,0
2018-03-31T00:20:37.423Z,0
2018-03-31T00:21:45.470Z,0
2018-03-31T00:22:53.541Z,0
2018-03-31T00:24:01.600Z,0
2018-03-31T00:25:10.460Z,0
2018-03-31T00:26:19.187Z,0
2018-03-31T00:27:26.659Z,0
2018-03-31T00:28:34.601Z,0
2018-03-31T00:29:42.650Z,0
2018-03-31T00:30:50.806Z,0
2018-03-31T00:31:58.775Z,0
2018-03-31T00:33:06.926Z,0
2018-03-31T00:34:14.981Z,0
2018-03-31T00:35:23.103Z,0
2018-03-31T00:36:31.032Z,0
2018-03-31T00:37:39.179Z,0
2018-03-31T00:38:47.241Z,0
2018-03-31T00:39:55.212Z,0
2018-03-31T00:41:03.542Z,0
2018-03-31T00:42:11.338Z,0
2018-03-31T00:43:19.476Z,0
2018-03-31T00:44:27.549Z,0
2018-03-31T00:45:35.524Z,0
2018-03-31T00:46:43.587Z,0
2018-03-31T00:47:51.661Z,0
2018-03-31T00:48:59.771Z,0
2018-03-31T00:50:07.751Z,0
2018-03-31T00:51:15.794Z,0
2018-03-31T00:52:23.895Z,0
2018-03-31T00:53:31.908Z,0
2018-03-31T00:54:40.038Z,0
2018-03-31T00:55:48.055Z,0
2018-03-31T00:56:56.101Z,0
2018-03-31T00:58:04.229Z,0
2018-03-31T00:59:12.255Z,0
2018-03-31T01:00:20.284Z,0
2018-03-31T01:01:28.340Z,0
2018-03-31T01:02:36.448Z,0
2018-03-31T01:03:44.472Z,0
2018-03-31T01:04:52.556Z,0
2018-03-31T01:06:00.637Z,0
2018-03-31T01:07:08.637Z,0
2018-03-31T01:08:16.755Z,0
2018-03-31T01:09:24.771Z,0
2018-03-31T01:10:32.834Z,0
2018-03-31T01:11:43.425Z,0
2018-03-31T01:12:48.932Z,0
2018-03-31T01:13:57.027Z,0
2018-03-31T01:15:05.131Z,0
2018-03-31T01:16:13.131Z,0
2018-03-31T01:17:21.204Z,0
2018-03-31T01:18:29.248Z,0
2018-03-31T01:19:37.287Z,0
2018-03-31T01:20:45.375Z,0
2018-03-31T01:21:53.474Z,0
2018-03-31T01:23:01.584Z,0
2018-03-31T01:24:09.615Z,0
2018-03-31T01:25:17.709Z,0
2018-03-31T01:26:25.741Z,0
2018-03-31T01:27:33.735Z,0
2018-03-31T01:28:41.787Z,0
2018-03-31T01:29:49.853Z,0
2018-03-31T01:30:57.931Z,0
2018-03-31T01:32:05.949Z,0
2018-03-31T01:33:14.085Z,0
2018-03-31T01:34:22.140Z,0
2018-03-31T01:35:30.175Z,0
2018-03-31T01:36:38.185Z,0
2018-03-31T01:37:46.241Z,0
2018-03-31T01:38:54.366Z,0
2018-03-31T01:40:02.429Z,0
2018-03-31T01:41:10.517Z,0
2018-03-31T01:42:18.476Z,0
2018-03-31T01:43:26.555Z,0
2018-03-31T01:44:34.705Z,0
2018-03-31T01:45:42.677Z,0
2018-03-31T01:46:50.720Z,0
2018-03-31T01:47:58.832Z,0
2018-03-31T01:49:06.914Z,0
2018-03-31T01:50:14.902Z,0
2018-03-31T01:51:22.998Z,0
2018-03-31T01:52:31.035Z,0
2018-03-31T01:53:39.129Z,0
2018-03-31T01:54:47.176Z,0
2018-03-31T01:55:55.263Z,0
2018-03-31T01:57:03.252Z,0
2018-03-31T01:58:11.323Z,0
2018-03-31T01:59:19.447Z,0
2018-03-31T02:00:27.436Z,0
2018-03-31T02:01:35.568Z,0
2018-03-31T02:02:43.608Z,0
2018-03-31T02:03:51.639Z,0
2018-03-31T02:04:59.733Z,0
2018-03-31T02:06:07.749Z,0
2018-03-31T02:07:15.787Z,0
2018-03-31T02:08:23.868Z,0
2018-03-31T02:09:32.004Z,0
2018-03-31T02:10:40.023Z,0
2018-03-31T02:11:48.184Z,0
2018-03-31T02:12:56.283Z,0
2018-03-31T02:14:04.139Z,0
2018-03-31T02:15:12.244Z,0
2018-03-31T02:16:20.307Z,0
2018-03-31T02:17:28.382Z,0
2018-03-31T02:18:36.425Z,0
2018-03-31T02:19:44.454Z,0
2018-03-31T02:20:52.522Z,0
2018-03-31T02:22:00.628Z,0
2018-03-31T02:23:08.668Z,0
2018-03-31T02:24:16.677Z,0
2018-03-31T02:25:24.751Z,0
2018-03-31T02:26:32.813Z,0
2018-03-31T02:27:40.884Z,0
2018-03-31T02:28:49.046Z,0
2018-03-31T02:29:57.036Z,0
2018-03-31T02:31:05.122Z,0
2018-03-31T02:32:13.129Z,0
2018-03-31T02:33:21.152Z,0
2018-03-31T02:34:29.285Z,0
2018-03-31T02:35:37.292Z,0
2018-03-31T02:36:45.406Z,0
2018-03-31T02:37:53.402Z,0
2018-03-31T02:39:01.563Z,0
2018-03-31T02:40:09.555Z,0
2018-03-31T02:41:17.632Z,0
2018-03-31T02:42:25.629Z,0
2018-03-31T02:43:33.774Z,0
2018-03-31T02:44:41.745Z,0
2018-03-31T02:45:49.815Z,0
2018-03-31T02:46:57.979Z,0
2018-03-31T02:48:05.926Z,0
2018-03-31T02:49:14.066Z,0
2018-03-31T02:50:22.060Z,0
2018-03-31T02:51:30.150Z,0
2018-03-31T02:52:38.249Z,0
2018-03-31T02:53:46.302Z,0
2018-03-31T02:54:54.280Z,0
2018-03-31T02:56:02.346Z,0
2018-03-31T02:57:10.406Z,0
2018-03-31T02:58:18.497Z,0
2018-03-31T02:59:26.534Z,0
2018-03-31T03:00:34.675Z,0
2018-03-31T03:01:42.654Z,0
2018-03-31T03:02:50.767Z,0
2018-03-31T03:03:58.814Z,0
2018-03-31T03:05:06.806Z,0
2018-03-31T03:06:14.976Z,0
2018-03-31T03:07:22.987Z,0
2018-03-31T03:08:31.002Z,0
2018-03-31T03:09:39.123Z,0
2018-03-31T03:10:47.158Z,0
2018-03-31T03:11:55.252Z,0
2018-03-31T03:13:03.224Z,0
2018-03-31T03:14:11.298Z,0
2018-03-31T03:15:19.417Z,0
2018-03-31T03:16:27.423Z,0
2018-03-31T03:17:35.517Z,0
2018-03-31T03:18:43.607Z,0
2018-03-31T03:19:54.088Z,0
2018-03-31T03:21:02.141Z,0
2018-03-31T03:22:10.162Z,0
2018-03-31T03:23:19.730Z,0
2018-03-31T03:24:26.388Z,0
2018-03-31T03:25:34.404Z,0
2018-03-31T03:26:42.429Z,0
2018-03-31T03:27:50.450Z,0
2018-03-31T03:28:58.512Z,0
2018-03-31T03:30:06.648Z,0
2018-03-31T03:31:14.761Z,0
2018-03-31T03:32:22.755Z,0
2018-03-31T03:33:30.757Z,0
2018-03-31T03:34:38.812Z,0
2018-03-31T03:35:46.896Z,0
2018-03-31T03:36:54.926Z,0
2018-03-31T03:38:02.989Z,0
2018-03-31T03:39:11.131Z,0
2018-03-31T03:40:19.108Z,0
2018-03-31T03:41:27.219Z,0
2018-03-31T03:42:35.328Z,0
2018-03-31T03:43:43.276Z,0
2018-03-31T03:44:51.406Z,0
2018-03-31T03:45:59.423Z,0
2018-03-31T03:47:07.458Z,0
2018-03-31T03:48:15.552Z,0
2018-03-31T03:49:23.637Z,0
2018-03-31T03:50:31.709Z,0
2018-03-31T03:51:42.272Z,0
2018-03-31T03:52:47.814Z,0
2018-03-31T03:53:55.839Z,0
2018-03-31T03:55:03.924Z,0
2018-03-31T03:56:11.971Z,0
2018-03-31T03:57:19.984Z,0
2018-03-31T03:58:28.110Z,0
2018-03-31T03:59:36.160Z,0
2018-03-31T04:00:44.188Z,0
2018-03-31T04:01:52.320Z,0
2018-03-31T04:03:00.350Z,0
2018-03-31T04:04:08.410Z,0
2018-03-31T04:05:16.444Z,0
2018-03-31T04:06:24.490Z,0
2018-03-31T04:07:32.556Z,0
2018-03-31T04:08:40.599Z,0
2018-03-31T04:09:48.677Z,0
2018-03-31T04:10:56.751Z,0
2018-03-31T04:12:04.813Z,0
2018-03-31T04:13:12.800Z,0
2018-03-31T04:14:20.961Z,0
2018-03-31T04:15:28.953Z,0
2018-03-31T04:16:37.094Z,0
2018-03-31T04:17:45.054Z,0
2018-03-31T04:18:53.124Z,0
2018-03-31T04:20:01.196Z,0
2018-03-31T04:21:09.282Z,0
2018-03-31T04:22:17.286Z,0
2018-03-31T04:23:25.395Z,0
2018-03-31T04:24:33.397Z,0
2018-03-31T04:25:41.481Z,0
2018-03-31T04:26:49.512Z,0
2018-03-31T04:27:57.664Z,0
2018-03-31T04:29:05.675Z,0
2018-03-31T04:30:13.811Z,0
2018-03-31T04:31:21.842Z,0
2018-03-31T04:32:29.813Z,0
2018-03-31T04:33:37.915Z,0
2018-03-31T04:34:45.975Z,0
2018-03-31T04:35:54.069Z,0
2018-03-31T04:37:02.085Z,0
2018-03-31T04:38:10.167Z,0
2018-03-31T04:39:18.211Z,0
2018-03-31T04:40:26.256Z,0
2018-03-31T04:41:34.352Z,0
2018-03-31T04:42:42.342Z,0
2018-03-31T04:43:50.406Z,0
2018-03-31T04:44:58.583Z,4
2018-03-31T04:46:06.605Z,4
2018-03-31T04:47:14.574Z,0
2018-03-31T04:48:22.775Z,4
2018-03-31T04:49:30.777Z,4
2018-03-31T04:50:38.737Z,4
2018-03-31T04:51:46.847Z,4
2018-03-31T04:52:54.887Z,12
2018-03-31T04:54:02.934Z,12
2018-03-31T04:55:11.025Z,16
2018-03-31T04:56:19.081Z,16
2018-03-31T04:57:27.176Z,20
2018-03-31T04:58:35.220Z,24
2018-03-31T04:59:43.270Z,28
2018-03-31T05:00:51.314Z,36
2018-03-31T05:01:59.340Z,40
2018-03-31T05:03:07.471Z,44
2018-03-31T05:04:15.510Z,48
2018-03-31T05:05:23.527Z,48
2018-03-31T05:06:31.568Z,52
2018-03-31T05:07:39.727Z,60
2018-03-31T05:08:47.696Z,72
2018-03-31T05:09:55.803Z,88
2018-03-31T05:11:03.815Z,100
2018-03-31T05:12:11.869Z,120
2018-03-31T05:13:19.968Z,136
2018-03-31T05:14:27.981Z,152
2018-03-31T05:15:36.070Z,164
2018-03-31T05:16:44.162Z,180
2018-03-31T05:17:52.159Z,192
2018-03-31T05:19:00.282Z,212
2018-03-31T05:20:08.349Z,236
2018-03-31T05:21:16.383Z,256
2018-03-31T05:22:24.403Z,268
2018-03-31T05:23:32.455Z,288
2018-03-31T05:24:40.612Z,304
2018-03-31T05:25:48.653Z,324
2018-03-31T05:26:56.680Z,344
2018-03-31T05:28:04.791Z,368
2018-03-31T05:29:12.742Z,396
2018-03-31T05:30:20.852Z,424
2018-03-31T05:31:28.923Z,456
2018-03-31T05:32:36.932Z,492
2018-03-31T05:33:45.005Z,536
2018-03-31T05:34:53.109Z,572
2018-03-31T05:36:01.146Z,616
2018-03-31T05:37:09.160Z,656
2018-03-31T05:38:17.267Z,700
2018-03-31T05:39:25.301Z,760
2018-03-31T05:40:33.352Z,820
2018-03-31T05:41:41.469Z,872
2018-03-31T05:42:49.469Z,924
2018-03-31T05:43:57.532Z,960
2018-03-31T05:45:05.669Z,992
2018-03-31T05:46:13.648Z,1036
2018-03-31T05:47:21.775Z,1096
2018-03-31T05:48:29.755Z,1160
2018-03-31T05:49:37.949Z,1236
2018-03-31T05:50:45.934Z,1320
2018-03-31T05:51:53.980Z,1400
2018-03-31T05:53:02.058Z,1484
2018-03-31T05:54:10.080Z,1564
2018-03-31T05:55:18.135Z,1652
2018-03-31T05:56:26.177Z,1720
2018-03-31T05:57:34.235Z,1816
2018-03-31T05:58:42.349Z,1944
2018-03-31T05:59:50.410Z,2112
2018-03-31T06:00:58.583Z,2308
2018-03-31T06:02:06.508Z,2512
2018-03-31T06:03:14.544Z,2704
2018-03-31T06:04:22.684Z,2892
2018-03-31T06:05:30.656Z,3076
2018-03-31T06:06:38.804Z,3212
2018-03-31T06:07:46.769Z,3344
2018-03-31T06:08:54.842Z,3568
2018-03-31T06:10:02.981Z,3784
2018-03-31T06:11:10.942Z,3964
2018-03-31T06:12:19.026Z,4136
2018-03-31T06:13:27.071Z,4356
2018-03-31T06:14:35.195Z,4560
2018-03-31T06:15:43.183Z,4720
2018-03-31T06:16:51.339Z,4812
2018-03-31T06:17:59.364Z,4864
2018-03-31T06:19:07.382Z,4760
2018-03-31T06:20:15.434Z,4732
2018-03-31T06:21:23.572Z,4736
2018-03-31T06:22:31.573Z,4640
2018-03-31T06:23:39.598Z,4480
2018-03-31T06:24:47.735Z,4304
2018-03-31T06:25:55.800Z,4228
2018-03-31T06:27:03.888Z,4256
2018-03-31T06:28:11.861Z,4420
2018-03-31T06:29:19.976Z,4672
2018-03-31T06:30:28.344Z,5004
2018-03-31T06:31:36.483Z,5328
2018-03-31T06:32:44.472Z,5380
2018-03-31T06:33:52.584Z,5356
2018-03-31T06:35:00.597Z,5220
2018-03-31T06:36:08.647Z,5244
2018-03-31T06:37:16.710Z,5388
2018-03-31T06:38:24.860Z,5580
2018-03-31T06:39:32.894Z,5648
2018-03-31T06:40:40.898Z,5672
2018-03-31T06:41:48.986Z,5760
2018-03-31T06:42:58.580Z,6208
2018-03-31T06:44:05.079Z,6848
2018-03-31T06:45:13.142Z,7136
2018-03-31T06:46:21.279Z,7088
2018-03-31T06:47:29.254Z,7324
2018-03-31T06:48:37.409Z,7068
2018-03-31T06:49:45.426Z,6624
2018-03-31T06:50:53.479Z,6596
2018-03-31T06:52:01.613Z,6848
2018-03-31T06:53:09.586Z,6752
2018-03-31T06:54:17.626Z,6648
2018-03-31T06:55:25.799Z,6868
2018-03-31T06:56:33.764Z,7028
2018-03-31T06:57:41.826Z,6956
2018-03-31T06:58:49.871Z,6668
2018-03-31T06:59:57.994Z,6652
2018-03-31T07:01:06.020Z,6884
2018-03-31T07:02:14.099Z,6940
2018-03-31T07:03:22.154Z,6796
2018-03-31T07:04:30.516Z,6876
2018-03-31T07:05:38.250Z,6952
2018-03-31T07:06:46.390Z,6960
2018-03-31T07:07:54.433Z,6896
2018-03-31T07:09:02.442Z,6740
2018-03-31T07:10:10.585Z,6468
2018-03-31T07:11:18.578Z,6112
2018-03-31T07:12:26.684Z,5732
2018-03-31T07:13:34.688Z,5328
2018-03-31T07:14:42.877Z,5136
2018-03-31T07:15:50.866Z,4900
2018-03-31T07:16:58.876Z,4716
2018-03-31T07:18:06.962Z,4780
2018-03-31T07:19:15.052Z,4772
2018-03-31T07:20:23.057Z,4884
2018-03-31T07:21:31.193Z,4892
2018-03-31T07:22:39.276Z,4928
2018-03-31T07:23:47.273Z,5064
2018-03-31T07:24:55.328Z,5240
2018-03-31T07:26:03.373Z,5320
2018-03-31T07:27:11.498Z,5128
2018-03-31T07:28:19.494Z,5068
2018-03-31T07:29:27.557Z,5268
2018-03-31T07:30:35.689Z,5424
2018-03-31T07:31:43.762Z,5748
2018-03-31T07:32:51.795Z,6032
2018-03-31T07:33:59.875Z,6108
2018-03-31T07:35:07.877Z,5808
2018-03-31T07:36:15.928Z,5552
2018-03-31T07:37:24.074Z,5560
2018-03-31T07:38:32.051Z,5620
2018-03-31T07:39:40.192Z,5836
2018-03-31T07:40:48.698Z,5860
2018-03-31T07:41:56.249Z,6160
2018-03-31T07:43:04.340Z,5932
2018-03-31T07:44:12.443Z,6288
2018-03-31T07:45:20.416Z,6500
2018-03-31T07:46:28.510Z,6636
2018-03-31T07:47:36.646Z,7024
2018-03-31T07:48:44.649Z,6756
2018-03-31T07:49:52.737Z,6532
2018-03-31T07:51:00.916Z,6512
2018-03-31T07:52:08.777Z,6340
2018-03-31T07:53:17.186Z,6096
2018-03-31T07:54:24.942Z,6328
2018-03-31T07:55:33.964Z,6672
2018-03-31T07:56:41.040Z,7108
2018-03-31T07:57:49.195Z,7320
2018-03-31T07:58:57.515Z,7320
2018-03-31T08:00:05.281Z,7328
2018-03-31T08:01:13.374Z,8220
2018-03-31T08:02:21.374Z,9008
2018-03-31T08:03:29.445Z,9268
2018-03-31T08:04:37.610Z,8804
2018-03-31T08:05:46.175Z,8384
2018-03-31T08:06:54.209Z,8104
2018-03-31T08:08:02.709Z,7848
2018-03-31T08:09:09.831Z,7396
2018-03-31T08:10:18.044Z,7016
2018-03-31T08:11:25.924Z,6800
2018-03-31T08:12:35.534Z,6132
2018-03-31T08:13:41.976Z,5712
2018-03-31T08:14:50.084Z,5700
2018-03-31T08:15:59.414Z,5988
2018-03-31T08:17:06.620Z,6208
2018-03-31T08:18:14.228Z,6236
2018-03-31T08:19:22.337Z,6220
2018-03-31T08:20:30.341Z,6228
2018-03-31T08:21:38.424Z,6316
2018-03-31T08:22:46.463Z,6404
2018-03-31T08:23:54.597Z,6500
2018-03-31T08:25:02.595Z,6428
2018-03-31T08:26:10.733Z,6476
2018-03-31T08:27:18.717Z,6368
2018-03-31T08:28:26.846Z,6348
2018-03-31T08:29:34.849Z,6344
2018-03-31T08:30:42.969Z,6552
2018-03-31T08:31:50.962Z,6848
2018-03-31T08:32:59.201Z,6760
2018-03-31T08:34:07.245Z,6676
2018-03-31T08:35:15.154Z,6868
2018-03-31T08:36:23.296Z,7380
2018-03-31T08:37:31.275Z,8100
2018-03-31T08:38:39.400Z,8552
2018-03-31T08:39:47.417Z,8660
2018-03-31T08:40:55.520Z,9012
2018-03-31T08:42:03.545Z,9332
2018-03-31T08:43:11.611Z,9464
2018-03-31T08:44:19.729Z,9380
2018-03-31T08:45:27.719Z,9080
2018-03-31T08:46:36.422Z,8828
2018-03-31T08:47:43.847Z,8632
2018-03-31T08:48:51.921Z,8600
2018-03-31T08:49:59.964Z,8836
2018-03-31T08:51:08.118Z,8596
2018-03-31T08:52:16.095Z,7836
2018-03-31T08:53:24.332Z,7016
2018-03-31T08:54:32.332Z,6436
2018-03-31T08:55:40.327Z,6064
2018-03-31T08:56:48.332Z,5732
2018-03-31T08:57:56.514Z,5600
2018-03-31T08:59:04.560Z,5556
2018-03-31T09:00:12.786Z,5564
2018-03-31T09:01:20.984Z,5488
2018-03-31T09:02:28.940Z,5532
2018-03-31T09:03:37.065Z,5788
2018-03-31T09:04:45.117Z,5924
2018-03-31T09:05:53.654Z,6060
2018-03-31T09:07:01.364Z,5924
2018-03-31T09:08:09.657Z,5420
2018-03-31T09:09:17.894Z,5260
2018-03-31T09:10:25.417Z,5256
2018-03-31T09:11:33.502Z,5504
2018-03-31T09:12:41.513Z,5568
2018-03-31T09:13:49.639Z,5488
2018-03-31T09:14:57.622Z,5452
2018-03-31T09:16:05.692Z,5508
2018-03-31T09:17:14.508Z,5480
2018-03-31T09:18:21.812Z,5432
2018-03-31T09:19:29.920Z,5476
2018-03-31T09:20:37.935Z,5476
2018-03-31T09:21:46.056Z,5508
2018-03-31T09:22:54.100Z,5816
2018-03-31T09:24:02.099Z,6104
2018-03-31T09:25:10.378Z,6868
2018-03-31T09:26:18.295Z,8512
2018-03-31T09:27:26.302Z,9484
2018-03-31T09:28:34.409Z,10468
2018-03-31T09:29:42.459Z,11272
2018-03-31T09:30:50.483Z,12388
2018-03-31T09:31:58.591Z,13556
2018-03-31T09:33:06.610Z,15092
2018-03-31T09:34:14.700Z,15316
2018-03-31T09:35:22.811Z,14052
2018-03-31T09:36:30.803Z,12252
2018-03-31T09:37:38.892Z,11756
2018-03-31T09:38:46.946Z,11328
2018-03-31T09:39:55.108Z,10736
2018-03-31T09:41:03.084Z,10024
2018-03-31T09:42:11.143Z,9780
2018-03-31T09:43:19.174Z,10032
2018-03-31T09:44:27.256Z,10464
2018-03-31T09:45:35.392Z,11148
2018-03-31T09:46:43.428Z,11692
2018-03-31T09:47:51.493Z,12320
2018-03-31T09:48:59.523Z,12116
2018-03-31T09:50:07.593Z,12112
2018-03-31T09:51:15.708Z,12280
2018-03-31T09:52:24.211Z,12720
2018-03-31T09:53:31.854Z,13144
2018-03-31T09:54:59.353Z,13704
2018-03-31T09:55:47.892Z,13208
2018-03-31T09:56:56.065Z,13052
2018-03-31T09:58:04.026Z,12580
2018-03-31T09:59:12.817Z,12184
2018-03-31T10:00:31.105Z,11952
2018-03-31T10:01:28.523Z,12660
2018-03-31T10:02:36.823Z,14664
2018-03-31T10:03:44.980Z,16988
2018-03-31T10:05:01.733Z,18752
2018-03-31T10:06:00.943Z,19584
2018-03-31T10:07:09.052Z,19200
2018-03-31T10:08:34.294Z,18048
2018-03-31T10:09:27.134Z,18592
2018-03-31T10:10:33.708Z,18432
2018-03-31T10:11:41.201Z,17696
2018-03-31T10:12:49.342Z,17048
2018-03-31T10:13:57.403Z,17568
2018-03-31T10:15:06.011Z,18016
2018-03-31T10:16:13.563Z,18304
2018-03-31T10:17:21.565Z,18240
2018-03-31T10:18:29.694Z,18144
2018-03-31T10:19:37.689Z,18144
2018-03-31T10:20:45.820Z,17920
2018-03-31T10:21:53.816Z,17696
2018-03-31T10:23:01.941Z,17472
2018-03-31T10:24:09.950Z,17536
2018-03-31T10:25:18.064Z,16548
2018-03-31T10:26:26.100Z,15152
2018-03-31T10:27:34.237Z,14584
2018-03-31T10:28:42.233Z,14072
2018-03-31T10:29:50.358Z,14040
2018-03-31T10:30:58.376Z,15096
2018-03-31T10:32:06.519Z,17600
2018-03-31T10:33:14.505Z,19296
2018-03-31T10:34:22.597Z,18720
2018-03-31T10:35:30.646Z,15676
2018-03-31T10:36:38.733Z,12540
2018-03-31T10:37:46.743Z,10320
2018-03-31T10:38:54.895Z,8708
2018-03-31T10:40:02.918Z,7724
2018-03-31T10:41:10.948Z,6656
2018-03-31T10:42:19.065Z,6132
2018-03-31T10:43:27.145Z,6460
2018-03-31T10:44:35.150Z,8000
2018-03-31T10:45:43.411Z,9464
2018-03-31T10:46:51.264Z,10116
2018-03-31T10:47:59.513Z,10408
2018-03-31T10:49:07.396Z,10524
2018-03-31T10:50:15.548Z,9984
2018-03-31T10:51:23.535Z,9196
2018-03-31T10:52:31.584Z,8624
2018-03-31T10:53:39.666Z,8280
2018-03-31T10:54:47.750Z,8116
2018-03-31T10:55:55.809Z,7956
2018-03-31T10:57:03.988Z,7680
2018-03-31T10:58:11.923Z,8048
2018-03-31T10:59:20.039Z,8444
2018-03-31T11:00:28.051Z,8304
2018-03-31T11:01:36.137Z,7800
2018-03-31T11:04:22.624Z,8304.0
2018-03-31T11:07:22.945Z,6232
2018-03-31T11:08:31.000Z,5716
2018-03-31T11:09:39.206Z,4764
2018-03-31T11:10:47.156Z,3932
2018-03-31T11:11:55.233Z,3296
2018-03-31T11:13:03.257Z,2968
2018-03-31T11:14:11.331Z,2928
2018-03-31T11:15:19.398Z,2948
2018-03-31T11:16:27.444Z,2912
2018-03-31T11:17:35.498Z,2876
2018-03-31T11:22:07.755Z,3976
2018-03-31T11:23:15.865Z,5184
2018-03-31T11:24:23.894Z,6940
2018-03-31T11:25:31.972Z,8816
2018-03-31T11:26:40.026Z,10848
2018-03-31T11:27:48.052Z,12284
2018-03-31T11:28:56.161Z,13360
2018-03-31T11:30:04.200Z,14248
2018-03-31T11:31:12.273Z,15024
2018-03-31T11:32:20.380Z,15640
2018-03-31T11:33:28.468Z,16012
2018-03-31T11:34:36.681Z,15884
2018-03-31T11:35:44.489Z,15340
2018-03-31T11:36:52.727Z,14656
2018-03-31T11:38:00.651Z,14064
2018-03-31T11:39:08.716Z,13752
2018-03-31T11:40:16.789Z,13592
2018-03-31T11:41:24.879Z,13484
2018-03-31T11:42:32.983Z,13288
2018-03-31T11:43:41.026Z,13376
2018-03-31T11:44:48.995Z,13632
2018-03-31T11:45:57.080Z,13900
2018-03-31T11:47:05.681Z,14096
2018-03-31T11:48:13.191Z,14192
2018-03-31T11:49:21.256Z,14160
2018-03-31T11:50:29.379Z,14112
2018-03-31T11:51:37.400Z,13872
2018-03-31T11:52:45.459Z,13400
2018-03-31T11:53:53.515Z,12972
2018-03-31T11:55:01.651Z,12704
2018-03-31T11:56:09.652Z,12952
2018-03-31T11:57:17.708Z,13352
2018-03-31T11:58:25.775Z,13988
2018-03-31T11:59:33.866Z,15200
2018-03-31T12:00:41.926Z,16640
2018-03-31T12:01:50.028Z,17792
2018-03-31T12:02:58.090Z,18336
2018-03-31T12:04:06.174Z,18496
2018-03-31T12:05:14.170Z,18528
2018-03-31T12:06:22.245Z,18400
2018-03-31T12:07:30.300Z,18304
2018-03-31T12:08:38.365Z,18336
2018-03-31T12:09:46.436Z,18528
2018-03-31T12:10:54.516Z,18624
2018-03-31T12:12:02.887Z,18464
2018-03-31T12:13:10.666Z,17888
2018-03-31T12:14:18.745Z,16656
2018-03-31T12:15:26.794Z,15248
2018-03-31T12:16:34.818Z,14168
2018-03-31T12:17:42.937Z,13856
2018-03-31T12:18:50.999Z,14004
2018-03-31T12:19:59.028Z,14108
2018-03-31T12:21:07.106Z,13404
2018-03-31T12:22:15.225Z,12124
2018-03-31T12:23:23.284Z,11748
2018-03-31T12:24:31.301Z,11884
2018-03-31T12:25:39.360Z,11808
2018-03-31T12:26:48.486Z,11684
2018-03-31T12:27:55.560Z,11480
2018-03-31T12:29:03.650Z,11396
2018-03-31T12:30:11.655Z,11576
2018-03-31T12:31:19.713Z,12004
2018-03-31T12:32:27.755Z,12612
2018-03-31T12:33:35.824Z,13296
2018-03-31T12:34:43.946Z,14044
2018-03-31T12:35:52.046Z,14112
2018-03-31T12:37:00.083Z,14104
2018-03-31T12:38:08.160Z,14680
2018-03-31T12:39:16.194Z,15336
2018-03-31T12:40:24.270Z,15884
2018-03-31T12:41:32.399Z,16072
2018-03-31T12:42:40.397Z,15488
2018-03-31T12:43:48.446Z,14444
2018-03-31T12:44:56.544Z,13836
2018-03-31T12:46:04.821Z,13564
2018-03-31T12:47:12.623Z,13268
2018-03-31T12:48:20.676Z,12716
2018-03-31T12:49:28.863Z,12232
2018-03-31T12:50:36.876Z,11904
2018-03-31T12:51:45.016Z,11460
2018-03-31T12:52:53.191Z,11168
2018-03-31T12:54:01.087Z,10572
2018-03-31T12:55:09.147Z,9836
2018-03-31T12:56:17.500Z,9056
2018-03-31T12:57:25.322Z,8340
2018-03-31T12:58:33.291Z,7704
2018-03-31T12:59:41.775Z,7596
2018-03-31T13:00:49.940Z,7756
2018-03-31T13:01:57.484Z,8084
2018-03-31T13:03:05.553Z,8504
2018-03-31T13:04:13.615Z,8908
2018-03-31T13:05:21.719Z,9492
2018-03-31T13:06:29.798Z,10292
2018-03-31T13:07:37.874Z,11368
2018-03-31T13:08:45.903Z,12264
2018-03-31T13:09:53.947Z,12856
2018-03-31T13:11:02.095Z,13308
2018-03-31T13:12:10.066Z,13684
2018-03-31T13:13:18.149Z,14096
2018-03-31T13:14:26.668Z,14252
2018-03-31T13:15:34.276Z,13780
2018-03-31T13:16:42.370Z,12732
2018-03-31T13:17:50.452Z,11444
2018-03-31T13:18:58.552Z,10120
2018-03-31T13:20:06.593Z,8896
2018-03-31T13:21:14.627Z,7844
2018-03-31T13:22:22.682Z,7032
2018-03-31T13:23:30.790Z,6540
2018-03-31T13:24:38.846Z,6312
2018-03-31T13:25:46.873Z,6284
2018-03-31T13:26:55.020Z,6500
2018-03-31T13:28:03.000Z,6964
2018-03-31T13:29:11.079Z,7656
2018-03-31T13:30:19.184Z,8140
2018-03-31T13:31:27.247Z,8420
2018-03-31T13:32:35.271Z,8620
2018-03-31T13:33:43.435Z,8768
2018-03-31T13:34:51.606Z,9040
2018-03-31T13:35:59.512Z,9812
2018-03-31T13:37:07.573Z,11152
2018-03-31T13:38:15.635Z,13096
2018-03-31T13:39:23.677Z,14468
2018-03-31T13:40:31.783Z,15320
2018-03-31T13:41:39.869Z,15876
2018-03-31T13:42:47.896Z,16312
2018-03-31T13:43:55.940Z,15848
2018-03-31T13:45:03.984Z,14872
2018-03-31T13:46:12.068Z,14068
2018-03-31T13:47:20.179Z,12676
2018-03-31T13:48:28.472Z,11504
2018-03-31T13:49:36.286Z,11092
2018-03-31T13:50:44.383Z,11112
2018-03-31T13:51:52.456Z,10804
2018-03-31T13:53:00.536Z,10984
2018-03-31T13:54:09.063Z,11460
2018-03-31T13:55:16.657Z,11712
2018-03-31T13:56:24.723Z,12056
2018-03-31T13:57:32.781Z,11868
2018-03-31T13:58:40.863Z,11816
2018-03-31T13:59:48.844Z,11268
2018-03-31T14:00:56.929Z,11044
2018-03-31T14:02:05.010Z,10652
2018-03-31T14:03:13.049Z,10424
2018-03-31T14:04:21.118Z,10028
2018-03-31T14:05:29.181Z,9564
2018-03-31T14:06:37.307Z,9340
2018-03-31T14:07:45.349Z,9140
2018-03-31T14:08:53.425Z,8972
2018-03-31T14:10:01.716Z,8848
2018-03-31T14:11:09.542Z,8728
2018-03-31T14:12:17.611Z,8800
2018-03-31T14:13:25.703Z,8896
2018-03-31T14:14:33.775Z,8908
2018-03-31T14:15:41.790Z,8952
2018-03-31T14:16:49.938Z,8892
2018-03-31T14:17:57.939Z,8744
2018-03-31T14:19:06.030Z,8384
2018-03-31T14:20:14.079Z,8144
2018-03-31T14:21:22.191Z,7964
2018-03-31T14:22:30.238Z,7840
2018-03-31T14:23:38.302Z,7728
2018-03-31T14:24:46.448Z,7716
2018-03-31T14:25:54.416Z,7752
2018-03-31T14:27:02.477Z,8044
2018-03-31T14:28:10.571Z,8500
2018-03-31T14:29:18.637Z,8272
2018-03-31T14:30:26.709Z,8824
2018-03-31T14:31:34.759Z,9180
2018-03-31T14:32:42.782Z,9572
2018-03-31T14:33:50.883Z,10140
2018-03-31T14:34:58.952Z,10156
2018-03-31T14:36:07.016Z,10500
2018-03-31T14:37:15.065Z,11328
2018-03-31T14:38:23.169Z,12072
2018-03-31T14:39:31.218Z,12336
2018-03-31T14:40:39.266Z,12240
2018-03-31T14:41:47.364Z,11908
2018-03-31T14:42:55.448Z,11228
2018-03-31T14:44:03.448Z,9908
2018-03-31T14:45:11.614Z,8704
2018-03-31T14:46:19.566Z,7912
2018-03-31T14:47:27.620Z,7740
2018-03-31T14:48:35.701Z,7640
2018-03-31T14:49:43.801Z,7312
2018-03-31T14:50:51.829Z,7208
2018-03-31T14:51:59.921Z,7220
2018-03-31T14:53:08.037Z,7248
2018-03-31T14:54:16.075Z,7216
2018-03-31T14:55:24.146Z,6904
2018-03-31T14:56:32.157Z,6708
2018-03-31T14:57:40.245Z,6336
2018-03-31T14:58:48.395Z,5860
2018-03-31T14:59:56.399Z,5352
2018-03-31T15:01:04.481Z,4820
2018-03-31T15:02:12.536Z,4372
2018-03-31T15:03:20.544Z,4380
2018-03-31T15:04:28.609Z,5344
2018-03-31T15:05:36.724Z,7052
2018-03-31T15:06:44.792Z,8288
2018-03-31T15:07:52.856Z,8980
2018-03-31T15:09:00.907Z,7520
2018-03-31T15:10:08.993Z,6772
2018-03-31T15:11:17.049Z,6400
2018-03-31T15:12:25.075Z,5636
2018-03-31T15:13:33.186Z,4788
2018-03-31T15:14:41.274Z,3544
2018-03-31T15:15:49.270Z,2512
2018-03-31T15:16:57.376Z,2100
2018-03-31T15:18:05.449Z,2632
2018-03-31T15:19:13.541Z,3912
2018-03-31T15:20:21.589Z,5124
2018-03-31T15:21:29.598Z,5024
2018-03-31T15:22:37.733Z,5048
2018-03-31T15:23:45.779Z,5160
2018-03-31T15:24:53.842Z,6200
2018-03-31T15:26:01.869Z,7472
2018-03-31T15:27:09.983Z,8304
2018-03-31T15:28:18.017Z,9272
2018-03-31T15:29:26.060Z,9984
2018-03-31T15:30:34.172Z,9788
2018-03-31T15:31:42.216Z,10200
2018-03-31T15:32:50.334Z,10644
2018-03-31T15:33:58.480Z,9916
2018-03-31T15:35:06.398Z,8892
2018-03-31T15:36:14.531Z,7792